sensor_id;sensor_type;location;lat;lon;timestamp;P1;durP1;ratioP1;P2;durP2;ratioP2
13793;SDS011;31160;49.500;7.772;2023-07-09T00:02:05;8.10;;;4.00;;
13793;SDS011;31160;49.500;7.772;2023-07-09T00:04:35;9.67;;;4.67;;
13793;SDS011;31160;49.500;7.772;2023-07-09T00:07:02;6.40;;;4.00;;
13793;SDS011;31160;49.500;7.772;2023-07-09T00:09:31;5.50;;;4.10;;
13793;SDS011;31160;49.500;7.772;2023-07-09T00:11:58;6.00;;;3.77;;
13793;SDS011;31160;49.500;7.772;2023-07-09T00:14:24;6.53;;;3.70;;
13793;SDS011;31160;49.500;7.772;2023-07-09T00:16:51;6.20;;;3.30;;
13793;SDS011;31160;49.500;7.772;2023-07-09T00:19:19;7.20;;;3.63;;
13793;SDS011;31160;49.500;7.772;2023-07-09T00:21:47;6.43;;;3.70;;
13793;SDS011;31160;49.500;7.772;2023-07-09T00:24:15;5.27;;;3.70;;
13793;SDS011;31160;49.500;7.772;2023-07-09T00:26:42;5.00;;;4.00;;
13793;SDS011;31160;49.500;7.772;2023-07-09T00:29:12;6.67;;;3.90;;
13793;SDS011;31160;49.500;7.772;2023-07-09T00:31:39;6.97;;;3.97;;
13793;SDS011;31160;49.500;7.772;2023-07-09T00:34:08;6.90;;;3.70;;
13793;SDS011;31160;49.500;7.772;2023-07-09T00:36:40;8.83;;;4.37;;
13793;SDS011;31160;49.500;7.772;2023-07-09T00:39:18;6.67;;;3.80;;
13793;SDS011;31160;49.500;7.772;2023-07-09T00:41:47;6.73;;;4.73;;
13793;SDS011;31160;49.500;7.772;2023-07-09T00:49:34;8.50;;;4.20;;
13793;SDS011;31160;49.500;7.772;2023-07-09T00:55:05;7.30;;;4.63;;
13793;SDS011;31160;49.500;7.772;2023-07-09T00:57:38;8.53;;;3.70;;
13793;SDS011;31160;49.500;7.772;2023-07-09T01:00:11;6.30;;;3.53;;
13793;SDS011;31160;49.500;7.772;2023-07-09T01:02:43;5.13;;;3.70;;
13793;SDS011;31160;49.500;7.772;2023-07-09T01:05:13;4.10;;;3.30;;
13793;SDS011;31160;49.500;7.772;2023-07-09T01:07:43;8.93;;;3.93;;
13793;SDS011;31160;49.500;7.772;2023-07-09T01:10:13;4.90;;;3.67;;
13793;SDS011;31160;49.500;7.772;2023-07-09T01:12:42;4.67;;;3.80;;
13793;SDS011;31160;49.500;7.772;2023-07-09T01:15:10;7.60;;;4.17;;
13793;SDS011;31160;49.500;7.772;2023-07-09T01:17:37;5.27;;;3.63;;
13793;SDS011;31160;49.500;7.772;2023-07-09T01:20:06;6.47;;;3.83;;
13793;SDS011;31160;49.500;7.772;2023-07-09T01:22:35;6.33;;;4.00;;
13793;SDS011;31160;49.500;7.772;2023-07-09T01:25:04;6.57;;;4.20;;
13793;SDS011;31160;49.500;7.772;2023-07-09T01:27:34;6.90;;;4.23;;
13793;SDS011;31160;49.500;7.772;2023-07-09T01:30:10;6.80;;;4.23;;
13793;SDS011;31160;49.500;7.772;2023-07-09T01:32:58;7.50;;;4.03;;
13793;SDS011;31160;49.500;7.772;2023-07-09T01:35:28;6.10;;;3.87;;
13793;SDS011;31160;49.500;7.772;2023-07-09T01:37:56;6.47;;;4.33;;
13793;SDS011;31160;49.500;7.772;2023-07-09T01:40:24;10.93;;;4.37;;
13793;SDS011;31160;49.500;7.772;2023-07-09T01:42:58;6.43;;;3.63;;
13793;SDS011;31160;49.500;7.772;2023-07-09T01:45:26;8.27;;;4.00;;
13793;SDS011;31160;49.500;7.772;2023-07-09T01:47:54;7.47;;;4.03;;
13793;SDS011;31160;49.500;7.772;2023-07-09T01:50:22;6.13;;;4.00;;
13793;SDS011;31160;49.500;7.772;2023-07-09T01:52:50;6.20;;;3.60;;
13793;SDS011;31160;49.500;7.772;2023-07-09T01:55:17;5.23;;;4.00;;
13793;SDS011;31160;49.500;7.772;2023-07-09T01:57:45;5.67;;;3.77;;
13793;SDS011;31160;49.500;7.772;2023-07-09T02:00:14;5.07;;;4.10;;
13793;SDS011;31160;49.500;7.772;2023-07-09T02:02:43;7.93;;;3.87;;
13793;SDS011;31160;49.500;7.772;2023-07-09T02:05:14;4.37;;;3.53;;
13793;SDS011;31160;49.500;7.772;2023-07-09T02:07:44;7.67;;;4.50;;
13793;SDS011;31160;49.500;7.772;2023-07-09T02:10:12;6.20;;;4.30;;
13793;SDS011;31160;49.500;7.772;2023-07-09T02:12:40;6.07;;;3.63;;
13793;SDS011;31160;49.500;7.772;2023-07-09T02:15:09;5.93;;;4.20;;
13793;SDS011;31160;49.500;7.772;2023-07-09T02:17:36;8.70;;;4.03;;
13793;SDS011;31160;49.500;7.772;2023-07-09T02:20:03;6.10;;;3.80;;
13793;SDS011;31160;49.500;7.772;2023-07-09T02:22:33;4.53;;;3.60;;
13793;SDS011;31160;49.500;7.772;2023-07-09T02:25:00;7.03;;;3.90;;
13793;SDS011;31160;49.500;7.772;2023-07-09T02:27:27;6.53;;;3.90;;
13793;SDS011;31160;49.500;7.772;2023-07-09T02:29:55;7.83;;;4.23;;
13793;SDS011;31160;49.500;7.772;2023-07-09T02:32:23;9.37;;;3.77;;
13793;SDS011;31160;49.500;7.772;2023-07-09T02:34:52;4.87;;;3.67;;
13793;SDS011;31160;49.500;7.772;2023-07-09T02:37:22;4.93;;;3.80;;
13793;SDS011;31160;49.500;7.772;2023-07-09T02:39:50;9.67;;;4.20;;
13793;SDS011;31160;49.500;7.772;2023-07-09T02:42:19;8.60;;;4.53;;
13793;SDS011;31160;49.500;7.772;2023-07-09T02:44:48;8.97;;;4.40;;
13793;SDS011;31160;49.500;7.772;2023-07-09T02:47:16;6.10;;;4.00;;
13793;SDS011;31160;49.500;7.772;2023-07-09T02:49:44;5.67;;;4.30;;
13793;SDS011;31160;49.500;7.772;2023-07-09T02:52:11;8.70;;;4.20;;
13793;SDS011;31160;49.500;7.772;2023-07-09T02:54:38;5.93;;;4.03;;
13793;SDS011;31160;49.500;7.772;2023-07-09T02:57:05;6.50;;;4.37;;
13793;SDS011;31160;49.500;7.772;2023-07-09T02:59:32;7.10;;;4.10;;
13793;SDS011;31160;49.500;7.772;2023-07-09T03:01:59;9.23;;;4.40;;
13793;SDS011;31160;49.500;7.772;2023-07-09T03:04:27;7.47;;;4.10;;
13793;SDS011;31160;49.500;7.772;2023-07-09T03:06:54;7.20;;;4.50;;
13793;SDS011;31160;49.500;7.772;2023-07-09T03:09:21;6.07;;;4.10;;
13793;SDS011;31160;49.500;7.772;2023-07-09T03:11:47;6.00;;;4.50;;
13793;SDS011;31160;49.500;7.772;2023-07-09T03:14:15;5.73;;;3.93;;
13793;SDS011;31160;49.500;7.772;2023-07-09T03:16:42;6.67;;;4.27;;
13793;SDS011;31160;49.500;7.772;2023-07-09T03:19:10;7.50;;;4.83;;
13793;SDS011;31160;49.500;7.772;2023-07-09T03:21:37;8.57;;;3.93;;
13793;SDS011;31160;49.500;7.772;2023-07-09T03:24:04;6.07;;;4.07;;
13793;SDS011;31160;49.500;7.772;2023-07-09T03:26:31;7.60;;;4.30;;
13793;SDS011;31160;49.500;7.772;2023-07-09T03:28:58;8.23;;;4.30;;
13793;SDS011;31160;49.500;7.772;2023-07-09T03:31:25;6.33;;;4.07;;
13793;SDS011;31160;49.500;7.772;2023-07-09T03:33:52;8.90;;;5.03;;
13793;SDS011;31160;49.500;7.772;2023-07-09T03:36:19;8.80;;;6.07;;
13793;SDS011;31160;49.500;7.772;2023-07-09T03:38:47;7.80;;;6.03;;
13793;SDS011;31160;49.500;7.772;2023-07-09T03:41:15;8.57;;;6.17;;
13793;SDS011;31160;49.500;7.772;2023-07-09T03:43:42;11.13;;;5.23;;
13793;SDS011;31160;49.500;7.772;2023-07-09T03:46:08;9.40;;;5.20;;
13793;SDS011;31160;49.500;7.772;2023-07-09T03:48:35;5.20;;;4.10;;
13793;SDS011;31160;49.500;7.772;2023-07-09T03:51:02;7.97;;;3.90;;
13793;SDS011;31160;49.500;7.772;2023-07-09T03:53:29;7.67;;;3.90;;
13793;SDS011;31160;49.500;7.772;2023-07-09T03:55:56;7.10;;;4.50;;
13793;SDS011;31160;49.500;7.772;2023-07-09T03:58:23;6.87;;;4.37;;
13793;SDS011;31160;49.500;7.772;2023-07-09T04:00:51;6.70;;;4.23;;
13793;SDS011;31160;49.500;7.772;2023-07-09T04:03:19;6.73;;;4.83;;
13793;SDS011;31160;49.500;7.772;2023-07-09T04:05:46;9.10;;;4.07;;
13793;SDS011;31160;49.500;7.772;2023-07-09T04:08:14;5.63;;;3.60;;
13793;SDS011;31160;49.500;7.772;2023-07-09T04:10:41;9.87;;;4.10;;
13793;SDS011;31160;49.500;7.772;2023-07-09T04:13:08;8.00;;;4.50;;
13793;SDS011;31160;49.500;7.772;2023-07-09T04:15:34;8.70;;;4.37;;
13793;SDS011;31160;49.500;7.772;2023-07-09T04:18:01;6.33;;;4.47;;
13793;SDS011;31160;49.500;7.772;2023-07-09T04:20:28;6.00;;;4.33;;
13793;SDS011;31160;49.500;7.772;2023-07-09T04:22:55;4.97;;;3.90;;
13793;SDS011;31160;49.500;7.772;2023-07-09T04:25:22;5.97;;;4.27;;
13793;SDS011;31160;49.500;7.772;2023-07-09T04:27:49;5.97;;;4.03;;
13793;SDS011;31160;49.500;7.772;2023-07-09T04:30:16;8.10;;;4.13;;
13793;SDS011;31160;49.500;7.772;2023-07-09T04:32:44;6.83;;;4.30;;
13793;SDS011;31160;49.500;7.772;2023-07-09T04:35:12;6.70;;;4.30;;
13793;SDS011;31160;49.500;7.772;2023-07-09T04:37:40;5.30;;;4.33;;
13793;SDS011;31160;49.500;7.772;2023-07-09T04:40:08;6.33;;;4.10;;
13793;SDS011;31160;49.500;7.772;2023-07-09T04:42:37;7.23;;;4.07;;
13793;SDS011;31160;49.500;7.772;2023-07-09T04:45:06;7.87;;;4.53;;
13793;SDS011;31160;49.500;7.772;2023-07-09T04:47:34;5.20;;;3.90;;
13793;SDS011;31160;49.500;7.772;2023-07-09T04:50:02;7.03;;;4.83;;
13793;SDS011;31160;49.500;7.772;2023-07-09T04:52:29;6.13;;;4.50;;
13793;SDS011;31160;49.500;7.772;2023-07-09T04:54:57;9.67;;;4.30;;
13793;SDS011;31160;49.500;7.772;2023-07-09T04:57:24;6.33;;;4.17;;
13793;SDS011;31160;49.500;7.772;2023-07-09T04:59:53;8.30;;;4.63;;
13793;SDS011;31160;49.500;7.772;2023-07-09T05:02:20;6.70;;;4.57;;
13793;SDS011;31160;49.500;7.772;2023-07-09T05:04:47;5.20;;;4.07;;
13793;SDS011;31160;49.500;7.772;2023-07-09T05:07:13;5.30;;;3.93;;
13793;SDS011;31160;49.500;7.772;2023-07-09T05:09:40;5.23;;;4.10;;
13793;SDS011;31160;49.500;7.772;2023-07-09T05:12:07;6.53;;;3.80;;
13793;SDS011;31160;49.500;7.772;2023-07-09T05:14:34;5.43;;;3.90;;
13793;SDS011;31160;49.500;7.772;2023-07-09T05:17:01;6.47;;;4.17;;
13793;SDS011;31160;49.500;7.772;2023-07-09T05:19:28;8.23;;;5.00;;
13793;SDS011;31160;49.500;7.772;2023-07-09T05:21:54;6.40;;;4.43;;
13793;SDS011;31160;49.500;7.772;2023-07-09T05:24:21;4.57;;;3.90;;
13793;SDS011;31160;49.500;7.772;2023-07-09T05:26:49;6.53;;;4.23;;
13793;SDS011;31160;49.500;7.772;2023-07-09T05:29:16;5.43;;;4.13;;
13793;SDS011;31160;49.500;7.772;2023-07-09T05:31:43;5.70;;;4.20;;
13793;SDS011;31160;49.500;7.772;2023-07-09T05:34:09;7.40;;;4.80;;
13793;SDS011;31160;49.500;7.772;2023-07-09T05:36:36;6.17;;;4.10;;
13793;SDS011;31160;49.500;7.772;2023-07-09T05:39:03;6.13;;;4.20;;
13793;SDS011;31160;49.500;7.772;2023-07-09T05:41:30;7.57;;;4.10;;
13793;SDS011;31160;49.500;7.772;2023-07-09T05:43:56;6.60;;;4.00;;
13793;SDS011;31160;49.500;7.772;2023-07-09T05:46:23;6.67;;;4.23;;
13793;SDS011;31160;49.500;7.772;2023-07-09T05:48:50;6.07;;;4.03;;
13793;SDS011;31160;49.500;7.772;2023-07-09T05:51:17;6.87;;;4.67;;
13793;SDS011;31160;49.500;7.772;2023-07-09T05:53:44;7.40;;;4.77;;
13793;SDS011;31160;49.500;7.772;2023-07-09T05:56:11;7.00;;;4.40;;
13793;SDS011;31160;49.500;7.772;2023-07-09T05:58:37;7.67;;;4.60;;
13793;SDS011;31160;49.500;7.772;2023-07-09T06:01:05;7.63;;;4.40;;
13793;SDS011;31160;49.500;7.772;2023-07-09T06:03:32;6.47;;;4.40;;
13793;SDS011;31160;49.500;7.772;2023-07-09T06:06:00;5.30;;;4.63;;
13793;SDS011;31160;49.500;7.772;2023-07-09T06:08:27;8.57;;;4.13;;
13793;SDS011;31160;49.500;7.772;2023-07-09T06:11:01;8.97;;;5.00;;
13793;SDS011;31160;49.500;7.772;2023-07-09T06:13:30;6.00;;;4.17;;
13793;SDS011;31160;49.500;7.772;2023-07-09T06:15:57;5.00;;;3.70;;
13793;SDS011;31160;49.500;7.772;2023-07-09T06:18:25;7.30;;;4.37;;
13793;SDS011;31160;49.500;7.772;2023-07-09T06:20:57;7.70;;;4.90;;
13793;SDS011;31160;49.500;7.772;2023-07-09T06:23:26;5.23;;;3.97;;
13793;SDS011;31160;49.500;7.772;2023-07-09T06:25:52;6.40;;;4.03;;
13793;SDS011;31160;49.500;7.772;2023-07-09T06:28:21;11.03;;;4.40;;
13793;SDS011;31160;49.500;7.772;2023-07-09T06:30:49;6.57;;;4.23;;
13793;SDS011;31160;49.500;7.772;2023-07-09T06:33:17;8.13;;;4.80;;
13793;SDS011;31160;49.500;7.772;2023-07-09T06:38:19;8.27;;;4.37;;
13793;SDS011;31160;49.500;7.772;2023-07-09T06:40:47;8.83;;;4.20;;
13793;SDS011;31160;49.500;7.772;2023-07-09T06:43:14;5.43;;;4.10;;
13793;SDS011;31160;49.500;7.772;2023-07-09T06:45:50;9.90;;;4.07;;
13793;SDS011;31160;49.500;7.772;2023-07-09T06:48:21;8.53;;;4.33;;
13793;SDS011;31160;49.500;7.772;2023-07-09T06:50:49;5.10;;;4.23;;
13793;SDS011;31160;49.500;7.772;2023-07-09T06:53:16;6.77;;;4.13;;
13793;SDS011;31160;49.500;7.772;2023-07-09T06:55:42;5.40;;;4.17;;
13793;SDS011;31160;49.500;7.772;2023-07-09T06:58:09;6.47;;;4.40;;
13793;SDS011;31160;49.500;7.772;2023-07-09T07:00:36;7.53;;;5.10;;
13793;SDS011;31160;49.500;7.772;2023-07-09T07:03:04;9.43;;;3.93;;
13793;SDS011;31160;49.500;7.772;2023-07-09T07:05:31;5.67;;;3.90;;
13793;SDS011;31160;49.500;7.772;2023-07-09T07:07:59;7.87;;;3.87;;
13793;SDS011;31160;49.500;7.772;2023-07-09T07:10:26;6.47;;;3.60;;
13793;SDS011;31160;49.500;7.772;2023-07-09T07:12:53;7.63;;;4.70;;
13793;SDS011;31160;49.500;7.772;2023-07-09T07:15:20;5.70;;;3.87;;
13793;SDS011;31160;49.500;7.772;2023-07-09T07:17:48;6.63;;;3.60;;
13793;SDS011;31160;49.500;7.772;2023-07-09T07:20:15;5.67;;;3.47;;
13793;SDS011;31160;49.500;7.772;2023-07-09T07:22:42;7.43;;;4.00;;
13793;SDS011;31160;49.500;7.772;2023-07-09T07:25:10;7.97;;;4.30;;
13793;SDS011;31160;49.500;7.772;2023-07-09T07:27:37;10.33;;;4.50;;
13793;SDS011;31160;49.500;7.772;2023-07-09T07:30:04;14.10;;;5.30;;
13793;SDS011;31160;49.500;7.772;2023-07-09T07:32:38;5.10;;;4.43;;
13793;SDS011;31160;49.500;7.772;2023-07-09T07:35:10;6.57;;;4.57;;
13793;SDS011;31160;49.500;7.772;2023-07-09T07:37:36;5.87;;;3.90;;
13793;SDS011;31160;49.500;7.772;2023-07-09T07:40:03;9.00;;;4.10;;
13793;SDS011;31160;49.500;7.772;2023-07-09T07:42:31;6.50;;;3.57;;
13793;SDS011;31160;49.500;7.772;2023-07-09T07:44:58;5.87;;;3.87;;
13793;SDS011;31160;49.500;7.772;2023-07-09T07:47:25;6.80;;;3.40;;
13793;SDS011;31160;49.500;7.772;2023-07-09T07:49:53;5.50;;;3.73;;
13793;SDS011;31160;49.500;7.772;2023-07-09T07:52:20;7.40;;;4.07;;
13793;SDS011;31160;49.500;7.772;2023-07-09T07:54:48;8.57;;;3.83;;
13793;SDS011;31160;49.500;7.772;2023-07-09T07:57:15;6.73;;;3.33;;
13793;SDS011;31160;49.500;7.772;2023-07-09T07:59:41;7.77;;;3.83;;
13793;SDS011;31160;49.500;7.772;2023-07-09T08:02:11;12.17;;;3.73;;
13793;SDS011;31160;49.500;7.772;2023-07-09T08:04:40;6.17;;;3.50;;
13793;SDS011;31160;49.500;7.772;2023-07-09T08:07:08;7.20;;;3.80;;
13793;SDS011;31160;49.500;7.772;2023-07-09T08:09:35;6.30;;;3.40;;
13793;SDS011;31160;49.500;7.772;2023-07-09T08:12:03;4.10;;;2.93;;
13793;SDS011;31160;49.500;7.772;2023-07-09T08:14:40;8.03;;;3.77;;
13793;SDS011;31160;49.500;7.772;2023-07-09T08:17:08;4.97;;;3.13;;
13793;SDS011;31160;49.500;7.772;2023-07-09T08:19:45;3.70;;;2.87;;
13793;SDS011;31160;49.500;7.772;2023-07-09T08:22:16;6.80;;;3.10;;
13793;SDS011;31160;49.500;7.772;2023-07-09T08:24:43;6.57;;;3.43;;
13793;SDS011;31160;49.500;7.772;2023-07-09T08:27:10;4.47;;;3.37;;
13793;SDS011;31160;49.500;7.772;2023-07-09T08:29:38;8.67;;;3.53;;
13793;SDS011;31160;49.500;7.772;2023-07-09T08:32:06;4.90;;;3.47;;
13793;SDS011;31160;49.500;7.772;2023-07-09T08:34:33;5.00;;;2.67;;
13793;SDS011;31160;49.500;7.772;2023-07-09T08:37:00;6.73;;;3.20;;
13793;SDS011;31160;49.500;7.772;2023-07-09T08:39:28;5.13;;;3.17;;
13793;SDS011;31160;49.500;7.772;2023-07-09T08:44:37;4.70;;;2.90;;
13793;SDS011;31160;49.500;7.772;2023-07-09T08:47:12;7.13;;;3.40;;
13793;SDS011;31160;49.500;7.772;2023-07-09T08:49:56;5.10;;;2.50;;
13793;SDS011;31160;49.500;7.772;2023-07-09T08:52:30;4.47;;;3.00;;
13793;SDS011;31160;49.500;7.772;2023-07-09T08:55:09;4.10;;;2.87;;
13793;SDS011;31160;49.500;7.772;2023-07-09T08:57:41;6.53;;;3.00;;
13793;SDS011;31160;49.500;7.772;2023-07-09T09:00:15;6.70;;;3.03;;
13793;SDS011;31160;49.500;7.772;2023-07-09T09:02:58;6.07;;;3.20;;
13793;SDS011;31160;49.500;7.772;2023-07-09T09:05:45;6.03;;;4.27;;
13793;SDS011;31160;49.500;7.772;2023-07-09T09:08:22;5.50;;;3.33;;
13793;SDS011;31160;49.500;7.772;2023-07-09T09:10:56;4.53;;;3.13;;
13793;SDS011;31160;49.500;7.772;2023-07-09T09:13:31;3.90;;;2.80;;
13793;SDS011;31160;49.500;7.772;2023-07-09T09:16:00;4.33;;;3.17;;
13793;SDS011;31160;49.500;7.772;2023-07-09T09:18:35;5.67;;;3.57;;
13793;SDS011;31160;49.500;7.772;2023-07-09T09:21:11;9.60;;;3.13;;
13793;SDS011;31160;49.500;7.772;2023-07-09T09:23:43;4.60;;;3.23;;
13793;SDS011;31160;49.500;7.772;2023-07-09T09:26:34;7.63;;;3.20;;
13793;SDS011;31160;49.500;7.772;2023-07-09T09:29:09;3.83;;;3.20;;
13793;SDS011;31160;49.500;7.772;2023-07-09T09:31:38;4.63;;;2.90;;
13793;SDS011;31160;49.500;7.772;2023-07-09T09:34:06;6.70;;;3.77;;
13793;SDS011;31160;49.500;7.772;2023-07-09T09:36:47;8.83;;;3.03;;
13793;SDS011;31160;49.500;7.772;2023-07-09T09:39:16;4.77;;;2.97;;
13793;SDS011;31160;49.500;7.772;2023-07-09T09:41:44;5.00;;;3.40;;
13793;SDS011;31160;49.500;7.772;2023-07-09T09:44:19;7.07;;;5.03;;
13793;SDS011;31160;49.500;7.772;2023-07-09T09:46:56;4.40;;;3.13;;
13793;SDS011;31160;49.500;7.772;2023-07-09T09:49:26;7.43;;;3.33;;
13793;SDS011;31160;49.500;7.772;2023-07-09T09:51:54;4.77;;;3.00;;
13793;SDS011;31160;49.500;7.772;2023-07-09T09:54:26;4.53;;;2.77;;
13793;SDS011;31160;49.500;7.772;2023-07-09T09:56:56;5.53;;;3.07;;
13793;SDS011;31160;49.500;7.772;2023-07-09T09:59:32;6.43;;;2.80;;
13793;SDS011;31160;49.500;7.772;2023-07-09T10:02:12;3.00;;;2.37;;
13793;SDS011;31160;49.500;7.772;2023-07-09T10:04:45;5.43;;;3.17;;
13793;SDS011;31160;49.500;7.772;2023-07-09T10:07:23;6.83;;;2.80;;
13793;SDS011;31160;49.500;7.772;2023-07-09T10:09:59;9.23;;;2.87;;
13793;SDS011;31160;49.500;7.772;2023-07-09T10:15:20;6.30;;;2.63;;
13793;SDS011;31160;49.500;7.772;2023-07-09T10:18:09;7.37;;;3.03;;
13793;SDS011;31160;49.500;7.772;2023-07-09T10:20:48;7.33;;;2.60;;
13793;SDS011;31160;49.500;7.772;2023-07-09T10:23:27;3.70;;;2.27;;
13793;SDS011;31160;49.500;7.772;2023-07-09T10:26:09;7.23;;;2.93;;
13793;SDS011;31160;49.500;7.772;2023-07-09T10:28:54;5.23;;;3.10;;
13793;SDS011;31160;49.500;7.772;2023-07-09T10:32:02;4.00;;;2.93;;
13793;SDS011;31160;49.500;7.772;2023-07-09T10:37:27;5.87;;;2.90;;
13793;SDS011;31160;49.500;7.772;2023-07-09T10:39:59;7.20;;;3.10;;
13793;SDS011;31160;49.500;7.772;2023-07-09T10:42:32;7.40;;;3.20;;
13793;SDS011;31160;49.500;7.772;2023-07-09T10:45:14;5.30;;;2.80;;
13793;SDS011;31160;49.500;7.772;2023-07-09T10:47:51;4.53;;;2.77;;
13793;SDS011;31160;49.500;7.772;2023-07-09T10:50:29;5.77;;;2.80;;
13793;SDS011;31160;49.500;7.772;2023-07-09T10:53:03;4.43;;;2.83;;
13793;SDS011;31160;49.500;7.772;2023-07-09T10:55:43;6.37;;;3.50;;
13793;SDS011;31160;49.500;7.772;2023-07-09T10:58:33;5.10;;;3.33;;
13793;SDS011;31160;49.500;7.772;2023-07-09T11:01:05;6.67;;;3.00;;
13793;SDS011;31160;49.500;7.772;2023-07-09T11:06:34;6.20;;;4.00;;
13793;SDS011;31160;49.500;7.772;2023-07-09T11:09:32;6.83;;;3.73;;
13793;SDS011;31160;49.500;7.772;2023-07-09T11:12:04;8.50;;;2.97;;
13793;SDS011;31160;49.500;7.772;2023-07-09T11:14:41;6.47;;;2.97;;
13793;SDS011;31160;49.500;7.772;2023-07-09T11:17:20;5.10;;;2.87;;
13793;SDS011;31160;49.500;7.772;2023-07-09T11:19:53;5.47;;;2.90;;
13793;SDS011;31160;49.500;7.772;2023-07-09T11:22:40;4.43;;;2.87;;
13793;SDS011;31160;49.500;7.772;2023-07-09T11:27:46;6.93;;;3.10;;
13793;SDS011;31160;49.500;7.772;2023-07-09T11:30:27;3.50;;;2.20;;
13793;SDS011;31160;49.500;7.772;2023-07-09T11:33:02;11.87;;;2.80;;
13793;SDS011;31160;49.500;7.772;2023-07-09T11:35:50;4.63;;;3.00;;
13793;SDS011;31160;49.500;7.772;2023-07-09T11:38:41;5.63;;;3.10;;
13793;SDS011;31160;49.500;7.772;2023-07-09T11:41:25;5.73;;;3.47;;
13793;SDS011;31160;49.500;7.772;2023-07-09T11:43:52;6.30;;;2.87;;
13793;SDS011;31160;49.500;7.772;2023-07-09T11:46:22;7.13;;;3.13;;
13793;SDS011;31160;49.500;7.772;2023-07-09T11:48:53;7.07;;;2.67;;
13793;SDS011;31160;49.500;7.772;2023-07-09T11:51:29;6.07;;;2.80;;
13793;SDS011;31160;49.500;7.772;2023-07-09T11:54:04;5.73;;;2.47;;
13793;SDS011;31160;49.500;7.772;2023-07-09T11:56:32;6.00;;;3.00;;
13793;SDS011;31160;49.500;7.772;2023-07-09T11:58:58;6.43;;;2.80;;
13793;SDS011;31160;49.500;7.772;2023-07-09T12:01:36;3.57;;;2.53;;
13793;SDS011;31160;49.500;7.772;2023-07-09T12:04:12;5.97;;;3.10;;
13793;SDS011;31160;49.500;7.772;2023-07-09T12:06:44;6.73;;;3.13;;
13793;SDS011;31160;49.500;7.772;2023-07-09T12:09:14;7.40;;;2.70;;
13793;SDS011;31160;49.500;7.772;2023-07-09T12:11:44;6.17;;;2.60;;
13793;SDS011;31160;49.500;7.772;2023-07-09T12:14:16;5.20;;;2.50;;
13793;SDS011;31160;49.500;7.772;2023-07-09T12:16:51;4.83;;;3.00;;
13793;SDS011;31160;49.500;7.772;2023-07-09T12:19:20;4.03;;;2.70;;
13793;SDS011;31160;49.500;7.772;2023-07-09T12:21:49;6.07;;;2.27;;
13793;SDS011;31160;49.500;7.772;2023-07-09T12:26:52;3.73;;;2.80;;
13793;SDS011;31160;49.500;7.772;2023-07-09T12:29:19;5.77;;;2.97;;
13793;SDS011;31160;49.500;7.772;2023-07-09T12:31:50;3.57;;;2.63;;
13793;SDS011;31160;49.500;7.772;2023-07-09T12:34:16;9.77;;;3.03;;
13793;SDS011;31160;49.500;7.772;2023-07-09T12:36:45;6.87;;;2.90;;
13793;SDS011;31160;49.500;7.772;2023-07-09T12:39:18;7.67;;;3.20;;
13793;SDS011;31160;49.500;7.772;2023-07-09T12:41:56;4.93;;;3.00;;
13793;SDS011;31160;49.500;7.772;2023-07-09T12:44:25;4.37;;;2.83;;
13793;SDS011;31160;49.500;7.772;2023-07-09T12:46:54;5.97;;;3.00;;
13793;SDS011;31160;49.500;7.772;2023-07-09T12:49:23;5.03;;;2.60;;
13793;SDS011;31160;49.500;7.772;2023-07-09T12:51:55;6.23;;;2.60;;
13793;SDS011;31160;49.500;7.772;2023-07-09T12:54:29;6.13;;;2.90;;
13793;SDS011;31160;49.500;7.772;2023-07-09T12:56:59;5.40;;;2.80;;
13793;SDS011;31160;49.500;7.772;2023-07-09T12:59:28;4.97;;;2.97;;
13793;SDS011;31160;49.500;7.772;2023-07-09T13:04:41;5.00;;;2.87;;
13793;SDS011;31160;49.500;7.772;2023-07-09T13:09:50;4.43;;;3.00;;
13793;SDS011;31160;49.500;7.772;2023-07-09T13:12:19;4.83;;;3.10;;
13793;SDS011;31160;49.500;7.772;2023-07-09T13:14:52;8.27;;;2.97;;
13793;SDS011;31160;49.500;7.772;2023-07-09T13:17:23;4.90;;;2.70;;
13793;SDS011;31160;49.500;7.772;2023-07-09T13:19:53;3.57;;;2.50;;
13793;SDS011;31160;49.500;7.772;2023-07-09T13:22:22;5.33;;;2.60;;
13793;SDS011;31160;49.500;7.772;2023-07-09T13:24:49;5.13;;;2.83;;
13793;SDS011;31160;49.500;7.772;2023-07-09T13:27:16;3.93;;;2.73;;
13793;SDS011;31160;49.500;7.772;2023-07-09T13:29:43;5.37;;;3.17;;
13793;SDS011;31160;49.500;7.772;2023-07-09T13:32:10;5.43;;;2.60;;
13793;SDS011;31160;49.500;7.772;2023-07-09T13:34:38;7.57;;;3.00;;
13793;SDS011;31160;49.500;7.772;2023-07-09T13:37:12;6.23;;;2.80;;
13793;SDS011;31160;49.500;7.772;2023-07-09T13:39:42;5.07;;;2.97;;
13793;SDS011;31160;49.500;7.772;2023-07-09T13:42:12;5.53;;;2.97;;
13793;SDS011;31160;49.500;7.772;2023-07-09T13:44:40;4.67;;;3.07;;
13793;SDS011;31160;49.500;7.772;2023-07-09T13:47:12;8.63;;;3.23;;
13793;SDS011;31160;49.500;7.772;2023-07-09T13:49:42;6.97;;;2.87;;
13793;SDS011;31160;49.500;7.772;2023-07-09T13:52:18;4.97;;;3.20;;
13793;SDS011;31160;49.500;7.772;2023-07-09T13:54:47;4.50;;;3.17;;
13793;SDS011;31160;49.500;7.772;2023-07-09T13:57:15;4.47;;;3.07;;
13793;SDS011;31160;49.500;7.772;2023-07-09T13:59:44;6.23;;;2.53;;
13793;SDS011;31160;49.500;7.772;2023-07-09T14:02:30;8.00;;;2.83;;
13793;SDS011;31160;49.500;7.772;2023-07-09T14:05:00;4.50;;;2.73;;
13793;SDS011;31160;49.500;7.772;2023-07-09T14:07:30;7.00;;;3.00;;
13793;SDS011;31160;49.500;7.772;2023-07-09T14:09:59;4.70;;;3.00;;
13793;SDS011;31160;49.500;7.772;2023-07-09T14:12:27;7.47;;;2.80;;
13793;SDS011;31160;49.500;7.772;2023-07-09T14:14:55;6.40;;;3.50;;
13793;SDS011;31160;49.500;7.772;2023-07-09T14:17:25;5.83;;;3.13;;
13793;SDS011;31160;49.500;7.772;2023-07-09T14:19:52;6.13;;;2.90;;
13793;SDS011;31160;49.500;7.772;2023-07-09T14:24:57;4.90;;;2.50;;
13793;SDS011;31160;49.500;7.772;2023-07-09T14:27:24;7.23;;;3.40;;
13793;SDS011;31160;49.500;7.772;2023-07-09T14:29:51;5.20;;;2.90;;
13793;SDS011;31160;49.500;7.772;2023-07-09T14:32:35;3.37;;;2.70;;
13793;SDS011;31160;49.500;7.772;2023-07-09T14:35:10;5.97;;;3.10;;
13793;SDS011;31160;49.500;7.772;2023-07-09T14:37:48;5.73;;;3.30;;
13793;SDS011;31160;49.500;7.772;2023-07-09T14:40:17;4.63;;;3.37;;
13793;SDS011;31160;49.500;7.772;2023-07-09T14:42:48;8.50;;;3.10;;
13793;SDS011;31160;49.500;7.772;2023-07-09T14:45:17;4.73;;;3.13;;
13793;SDS011;31160;49.500;7.772;2023-07-09T14:47:46;8.93;;;3.30;;
13793;SDS011;31160;49.500;7.772;2023-07-09T14:50:13;3.27;;;2.80;;
13793;SDS011;31160;49.500;7.772;2023-07-09T14:52:40;5.33;;;3.10;;
13793;SDS011;31160;49.500;7.772;2023-07-09T14:55:14;5.13;;;3.13;;
13793;SDS011;31160;49.500;7.772;2023-07-09T14:57:45;5.60;;;3.43;;
13793;SDS011;31160;49.500;7.772;2023-07-09T15:00:13;10.07;;;3.33;;
13793;SDS011;31160;49.500;7.772;2023-07-09T15:02:42;6.87;;;3.57;;
13793;SDS011;31160;49.500;7.772;2023-07-09T15:07:50;4.97;;;3.10;;
13793;SDS011;31160;49.500;7.772;2023-07-09T15:10:18;4.30;;;2.90;;
13793;SDS011;31160;49.500;7.772;2023-07-09T15:12:49;6.67;;;3.17;;
13793;SDS011;31160;49.500;7.772;2023-07-09T15:15:21;4.80;;;3.00;;
13793;SDS011;31160;49.500;7.772;2023-07-09T15:17:48;5.37;;;3.47;;
13793;SDS011;31160;49.500;7.772;2023-07-09T15:20:20;5.57;;;3.00;;
13793;SDS011;31160;49.500;7.772;2023-07-09T15:22:50;6.23;;;2.67;;
13793;SDS011;31160;49.500;7.772;2023-07-09T15:25:21;5.43;;;2.80;;
13793;SDS011;31160;49.500;7.772;2023-07-09T15:27:50;6.33;;;3.10;;
13793;SDS011;31160;49.500;7.772;2023-07-09T15:30:27;6.37;;;2.87;;
13793;SDS011;31160;49.500;7.772;2023-07-09T15:32:56;4.70;;;2.63;;
13793;SDS011;31160;49.500;7.772;2023-07-09T15:35:33;4.47;;;3.17;;
13793;SDS011;31160;49.500;7.772;2023-07-09T15:41:00;7.93;;;3.10;;
13793;SDS011;31160;49.500;7.772;2023-07-09T15:43:28;8.80;;;2.80;;
13793;SDS011;31160;49.500;7.772;2023-07-09T15:45:55;8.23;;;2.90;;
13793;SDS011;31160;49.500;7.772;2023-07-09T15:48:25;11.73;;;3.60;;